sensor_id;sensor_type;location;lat;lon;timestamp;pressure;altitude;pressure_sealevel;temperature;humidity
52137;BME280;38130;49.012;8.368;2022-07-29T00:00:50;99960.25;;;22.39;85.58
52137;BME280;38130;49.012;8.368;2022-07-29T00:03:17;99961.47;;;22.27;86.61
52137;BME280;38130;49.012;8.368;2022-07-29T00:05:43;99961.25;;;22.38;86.09
52137;BME280;38130;49.012;8.368;2022-07-29T00:08:10;99957.09;;;22.35;86.53
52137;BME280;38130;49.012;8.368;2022-07-29T00:10:38;99951.31;;;22.40;86.22
52137;BME280;38130;49.012;8.368;2022-07-29T00:13:04;99946.16;;;22.38;86.95
52137;BME280;38130;49.012;8.368;2022-07-29T00:15:31;99946.94;;;22.49;85.68
52137;BME280;38130;49.012;8.368;2022-07-29T00:17:57;99952.47;;;22.37;86.82
52137;BME280;38130;49.012;8.368;2022-07-29T00:20:24;99951.63;;;22.37;86.43
52137;BME280;38130;49.012;8.368;2022-07-29T00:22:50;99945.34;;;22.38;86.87
52137;BME280;38130;49.012;8.368;2022-07-29T00:25:17;99947.09;;;22.47;86.27
52137;BME280;38130;49.012;8.368;2022-07-29T00:27:43;99946.16;;;22.56;85.84
52137;BME280;38130;49.012;8.368;2022-07-29T00:30:12;99954.97;;;22.57;85.65
52137;BME280;38130;49.012;8.368;2022-07-29T00:32:38;99948.69;;;22.58;85.38
52137;BME280;38130;49.012;8.368;2022-07-29T00:35:05;99952.53;;;22.63;85.42
52137;BME280;38130;49.012;8.368;2022-07-29T00:37:51;99941.72;;;22.57;85.21
52137;BME280;38130;49.012;8.368;2022-07-29T00:40:17;99940.66;;;22.50;85.98
52137;BME280;38130;49.012;8.368;2022-07-29T00:42:52;99947.56;;;22.42;86.53
52137;BME280;38130;49.012;8.368;2022-07-29T00:45:19;99938.16;;;22.48;86.50
52137;BME280;38130;49.012;8.368;2022-07-29T00:47:46;99933.03;;;22.29;87.62
52137;BME280;38130;49.012;8.368;2022-07-29T00:50:13;99934.84;;;22.28;87.77
52137;BME280;38130;49.012;8.368;2022-07-29T00:52:41;99932.41;;;22.17;88.75
52137;BME280;38130;49.012;8.368;2022-07-29T00:55:10;99933.38;;;22.16;89.30
52137;BME280;38130;49.012;8.368;2022-07-29T00:57:38;99932.94;;;22.21;89.12
52137;BME280;38130;49.012;8.368;2022-07-29T01:00:06;99930.06;;;22.14;89.59
52137;BME280;38130;49.012;8.368;2022-07-29T01:02:33;99934.28;;;22.07;90.16
52137;BME280;38130;49.012;8.368;2022-07-29T01:05:01;99932.00;;;21.94;91.18
52137;BME280;38130;49.012;8.368;2022-07-29T01:07:28;99929.19;;;21.96;91.09
52137;BME280;38130;49.012;8.368;2022-07-29T01:09:56;99932.22;;;22.01;91.25
52137;BME280;38130;49.012;8.368;2022-07-29T01:12:25;99928.41;;;22.03;91.79
52137;BME280;38130;49.012;8.368;2022-07-29T01:14:54;99932.72;;;22.04;90.94
52137;BME280;38130;49.012;8.368;2022-07-29T01:22:35;99929.19;;;21.96;92.02
52137;BME280;38130;49.012;8.368;2022-07-29T01:28:32;99924.25;;;21.83;92.79
52137;BME280;38130;49.012;8.368;2022-07-29T01:31:04;99912.72;;;21.74;93.87
52137;BME280;38130;49.012;8.368;2022-07-29T01:33:45;99915.59;;;21.63;94.29
52137;BME280;38130;49.012;8.368;2022-07-29T01:36:19;99919.56;;;21.49;95.62
52137;BME280;38130;49.012;8.368;2022-07-29T01:38:58;99923.81;;;21.33;97.23
52137;BME280;38130;49.012;8.368;2022-07-29T01:41:27;99920.31;;;21.22;98.31
52137;BME280;38130;49.012;8.368;2022-07-29T01:44:10;99926.72;;;21.30;97.99
52137;BME280;38130;49.012;8.368;2022-07-29T01:46:40;99927.72;;;21.19;98.79
52137;BME280;38130;49.012;8.368;2022-07-29T01:49:14;99919.94;;;21.17;99.39
52137;BME280;38130;49.012;8.368;2022-07-29T01:51:49;99925.78;;;21.11;99.06
52137;BME280;38130;49.012;8.368;2022-07-29T01:56:55;99939.19;;;21.00;100.00
52137;BME280;38130;49.012;8.368;2022-07-29T01:59:23;99943.50;;;21.01;100.00
52137;BME280;38130;49.012;8.368;2022-07-29T02:01:54;99937.38;;;21.01;100.00
52137;BME280;38130;49.012;8.368;2022-07-29T02:04:21;99940.28;;;20.98;100.00
52137;BME280;38130;49.012;8.368;2022-07-29T02:07:00;99947.97;;;20.91;100.00
52137;BME280;38130;49.012;8.368;2022-07-29T02:09:29;99948.81;;;20.91;100.00
52137;BME280;38130;49.012;8.368;2022-07-29T02:11:59;99954.22;;;20.90;100.00
52137;BME280;38130;49.012;8.368;2022-07-29T02:14:30;99943.66;;;20.90;100.00
52137;BME280;38130;49.012;8.368;2022-07-29T02:16:59;99947.13;;;20.90;100.00
52137;BME280;38130;49.012;8.368;2022-07-29T02:19:27;99950.66;;;20.72;100.00
52137;BME280;38130;49.012;8.368;2022-07-29T02:21:57;99948.28;;;20.59;100.00
52137;BME280;38130;49.012;8.368;2022-07-29T02:24:25;99945.22;;;20.63;100.00
52137;BME280;38130;49.012;8.368;2022-07-29T02:26:53;99944.09;;;20.66;100.00
52137;BME280;38130;49.012;8.368;2022-07-29T02:29:22;99942.56;;;20.73;100.00
52137;BME280;38130;49.012;8.368;2022-07-29T02:31:50;99936.59;;;20.71;100.00
52137;BME280;38130;49.012;8.368;2022-07-29T02:34:19;99933.53;;;20.76;100.00
52137;BME280;38130;49.012;8.368;2022-07-29T02:36:48;99934.34;;;20.76;100.00
52137;BME280;38130;49.012;8.368;2022-07-29T02:39:16;99934.91;;;20.80;100.00
52137;BME280;38130;49.012;8.368;2022-07-29T02:41:48;99933.91;;;20.81;100.00
52137;BME280;38130;49.012;8.368;2022-07-29T02:44:18;99932.94;;;20.91;100.00
52137;BME280;38130;49.012;8.368;2022-07-29T02:46:58;99931.28;;;20.90;100.00
52137;BME280;38130;49.012;8.368;2022-07-29T02:50:00;99935.16;;;20.96;100.00
52137;BME280;38130;49.012;8.368;2022-07-29T02:55:18;99937.66;;;20.98;100.00
52137;BME280;38130;49.012;8.368;2022-07-29T02:58:21;99940.28;;;20.98;100.00
52137;BME280;38130;49.012;8.368;2022-07-29T03:01:02;99938.22;;;20.91;100.00
52137;BME280;38130;49.012;8.368;2022-07-29T03:03:34;99947.53;;;20.96;100.00
52137;BME280;38130;49.012;8.368;2022-07-29T03:06:03;99947.97;;;20.91;100.00
52137;BME280;38130;49.012;8.368;2022-07-29T03:08:31;99941.59;;;20.74;100.00
52137;BME280;38130;49.012;8.368;2022-07-29T03:10:59;99953.72;;;20.67;100.00
52137;BME280;38130;49.012;8.368;2022-07-29T03:13:27;99953.56;;;20.49;100.00
52137;BME280;38130;49.012;8.368;2022-07-29T03:15:56;99956.19;;;20.40;100.00
52137;BME280;38130;49.012;8.368;2022-07-29T03:18:24;99950.09;;;20.49;100.00
52137;BME280;38130;49.012;8.368;2022-07-29T03:20:52;99962.22;;;20.51;100.00
52137;BME280;38130;49.012;8.368;2022-07-29T03:23:20;99954.16;;;20.53;100.00
52137;BME280;38130;49.012;8.368;2022-07-29T03:25:52;99958.31;;;20.55;100.00
52137;BME280;38130;49.012;8.368;2022-07-29T03:28:20;99957.75;;;20.61;100.00
52137;BME280;38130;49.012;8.368;2022-07-29T03:30:47;99961.22;;;20.62;100.00
52137;BME280;38130;49.012;8.368;2022-07-29T03:33:14;99955.53;;;20.57;100.00
52137;BME280;38130;49.012;8.368;2022-07-29T03:35:40;99956.78;;;20.53;100.00
52137;BME280;38130;49.012;8.368;2022-07-29T03:38:07;99956.78;;;20.53;100.00
52137;BME280;38130;49.012;8.368;2022-07-29T03:40:44;99961.94;;;20.54;100.00
52137;BME280;38130;49.012;8.368;2022-07-29T03:43:14;99957.19;;;20.68;100.00
52137;BME280;38130;49.012;8.368;2022-07-29T03:45:44;99955.94;;;20.62;100.00
52137;BME280;38130;49.012;8.368;2022-07-29T03:48:14;99962.59;;;20.66;100.00
52137;BME280;38130;49.012;8.368;2022-07-29T03:50:41;99960.81;;;20.57;100.00
52137;BME280;38130;49.012;8.368;2022-07-29T03:53:08;99961.50;;;20.49;100.00
52137;BME280;38130;49.012;8.368;2022-07-29T03:55:43;99966.38;;;20.54;100.00
52137;BME280;38130;49.012;8.368;2022-07-29T03:58:12;99962.06;;;20.53;100.00
52137;BME280;38130;49.012;8.368;2022-07-29T04:00:40;99961.34;;;20.60;100.00
52137;BME280;38130;49.012;8.368;2022-07-29T04:03:07;99962.72;;;20.64;100.00
52137;BME280;38130;49.012;8.368;2022-07-29T04:05:37;99960.81;;;20.57;100.00
52137;BME280;38130;49.012;8.368;2022-07-29T04:08:03;99968.59;;;20.58;100.00
52137;BME280;38130;49.012;8.368;2022-07-29T04:10:30;99959.16;;;20.56;100.00
52137;BME280;38130;49.012;8.368;2022-07-29T04:13:01;99961.06;;;20.63;100.00
52137;BME280;38130;49.012;8.368;2022-07-29T04:15:27;99964.00;;;20.70;100.00
52137;BME280;38130;49.012;8.368;2022-07-29T04:17:57;99967.47;;;20.71;100.00
52137;BME280;38130;49.012;8.368;2022-07-29T04:20:24;99980.00;;;20.69;100.00
52137;BME280;38130;49.012;8.368;2022-07-29T04:22:50;99978.16;;;20.79;100.00
52137;BME280;38130;49.012;8.368;2022-07-29T04:25:17;99974.56;;;20.80;100.00
52137;BME280;38130;49.012;8.368;2022-07-29T04:27:43;99976.50;;;20.78;100.00
52137;BME280;38130;49.012;8.368;2022-07-29T04:30:26;99977.34;;;20.88;100.00
52137;BME280;38130;49.012;8.368;2022-07-29T04:32:53;99973.97;;;20.96;100.00
52137;BME280;38130;49.012;8.368;2022-07-29T04:35:20;99973.81;;;20.97;100.00
52137;BME280;38130;49.012;8.368;2022-07-29T04:37:46;99980.66;;;20.90;100.00
52137;BME280;38130;49.012;8.368;2022-07-29T04:40:13;99978.88;;;20.90;100.00
52137;BME280;38130;49.012;8.368;2022-07-29T04:42:40;99982.06;;;20.75;100.00
52137;BME280;38130;49.012;8.368;2022-07-29T04:45:12;99995.16;;;20.57;100.00
52137;BME280;38130;49.012;8.368;2022-07-29T04:47:39;99986.25;;;20.48;100.00
52137;BME280;38130;49.012;8.368;2022-07-29T04:50:08;99990.81;;;20.37;100.00
52137;BME280;38130;49.012;8.368;2022-07-29T04:52:35;99986.19;;;20.29;100.00
52137;BME280;38130;49.012;8.368;2022-07-29T04:55:02;100002.31;;;20.26;100.00
52137;BME280;38130;49.012;8.368;2022-07-29T04:57:29;99996.84;;;19.98;100.00
52137;BME280;38130;49.012;8.368;2022-07-29T04:59:55;99999.44;;;19.79;100.00
52137;BME280;38130;49.012;8.368;2022-07-29T05:02:22;99994.91;;;19.60;100.00
52137;BME280;38130;49.012;8.368;2022-07-29T05:04:48;99998.44;;;19.50;100.00
52137;BME280;38130;49.012;8.368;2022-07-29T05:07:15;99994.28;;;19.47;100.00
52137;BME280;38130;49.012;8.368;2022-07-29T05:09:41;99996.63;;;19.50;100.00
52137;BME280;38130;49.012;8.368;2022-07-29T05:12:08;99998.09;;;19.33;100.00
52137;BME280;38130;49.012;8.368;2022-07-29T05:14:34;100004.94;;;19.45;100.00
52137;BME280;38130;49.012;8.368;2022-07-29T05:17:01;99999.50;;;19.58;100.00
52137;BME280;38130;49.012;8.368;2022-07-29T05:19:27;100006.91;;;19.53;100.00
52137;BME280;38130;49.012;8.368;2022-07-29T05:21:54;100006.91;;;19.43;100.00
52137;BME280;38130;49.012;8.368;2022-07-29T05:24:20;100004.75;;;19.37;100.00
52137;BME280;38130;49.012;8.368;2022-07-29T05:26:47;100006.69;;;19.56;100.00
52137;BME280;38130;49.012;8.368;2022-07-29T05:29:13;100006.09;;;19.73;100.00
52137;BME280;38130;49.012;8.368;2022-07-29T05:32:00;100006.09;;;19.83;100.00
52137;BME280;38130;49.012;8.368;2022-07-29T05:34:26;100008.00;;;19.71;100.00
52137;BME280;38130;49.012;8.368;2022-07-29T05:36:53;100010.78;;;19.70;100.00
52137;BME280;38130;49.012;8.368;2022-07-29T05:39:19;100017.28;;;19.66;100.00
52137;BME280;38130;49.012;8.368;2022-07-29T05:41:46;100018.56;;;19.71;100.00
52137;BME280;38130;49.012;8.368;2022-07-29T05:44:17;100023.00;;;19.71;98.08
52137;BME280;38130;49.012;8.368;2022-07-29T05:46:44;100036.66;;;19.76;98.88
52137;BME280;38130;49.012;8.368;2022-07-29T05:49:11;100030.03;;;19.91;96.55
52137;BME280;38130;49.012;8.368;2022-07-29T05:51:52;100041.78;;;19.78;95.89
52137;BME280;38130;49.012;8.368;2022-07-29T05:54:20;100037.03;;;19.71;97.61
52137;BME280;38130;49.012;8.368;2022-07-29T05:56:47;100037.75;;;19.73;96.45
52137;BME280;38130;49.012;8.368;2022-07-29T05:59:13;100038.06;;;19.80;96.21
52137;BME280;38130;49.012;8.368;2022-07-29T06:01:43;100039.34;;;19.95;94.13
52137;BME280;38130;49.012;8.368;2022-07-29T06:04:10;100043.28;;;20.11;93.20
52137;BME280;38130;49.012;8.368;2022-07-29T06:06:36;100047.22;;;20.26;92.34
52137;BME280;38130;49.012;8.368;2022-07-29T06:09:03;100051.38;;;20.19;93.06
52137;BME280;38130;49.012;8.368;2022-07-29T06:11:38;100051.97;;;20.22;92.19
52137;BME280;38130;49.012;8.368;2022-07-29T06:14:04;100057.38;;;20.21;92.89
52137;BME280;38130;49.012;8.368;2022-07-29T06:16:31;100056.81;;;20.27;92.39
52137;BME280;38130;49.012;8.368;2022-07-29T06:18:57;100054.19;;;20.27;92.46
52137;BME280;38130;49.012;8.368;2022-07-29T06:21:24;100062.47;;;20.13;94.54
52137;BME280;38130;49.012;8.368;2022-07-29T06:23:50;100066.22;;;20.10;95.87
52137;BME280;38130;49.012;8.368;2022-07-29T06:26:17;100063.28;;;20.03;97.43
52137;BME280;38130;49.012;8.368;2022-07-29T06:28:56;100061.19;;;19.97;99.27
52137;BME280;38130;49.012;8.368;2022-07-29T06:31:22;100060.38;;;20.07;98.46
52137;BME280;38130;49.012;8.368;2022-07-29T06:33:49;100060.13;;;20.10;98.58
52137;BME280;38130;49.012;8.368;2022-07-29T06:36:15;100066.50;;;20.17;98.56
52137;BME280;38130;49.012;8.368;2022-07-29T06:38:42;100060.72;;;20.32;98.10
52137;BME280;38130;49.012;8.368;2022-07-29T06:41:16;100062.34;;;20.54;96.18
52137;BME280;38130;49.012;8.368;2022-07-29T06:43:44;100066.91;;;20.62;95.10
52137;BME280;38130;49.012;8.368;2022-07-29T06:46:19;100064.56;;;20.59;93.33
52137;BME280;38130;49.012;8.368;2022-07-29T06:48:46;100062.72;;;20.50;94.28
52137;BME280;38130;49.012;8.368;2022-07-29T06:51:14;100071.13;;;20.74;93.30
52137;BME280;38130;49.012;8.368;2022-07-29T06:53:42;100076.53;;;20.92;91.87
52137;BME280;38130;49.012;8.368;2022-07-29T06:56:29;100077.78;;;20.98;91.66
52137;BME280;38130;49.012;8.368;2022-07-29T06:58:57;100083.66;;;21.01;92.12
52137;BME280;38130;49.012;8.368;2022-07-29T07:01:23;100078.22;;;21.03;92.02
52137;BME280;38130;49.012;8.368;2022-07-29T07:03:50;100074.03;;;21.19;91.04
52137;BME280;38130;49.012;8.368;2022-07-29T07:06:16;100080.00;;;21.41;90.24
52137;BME280;38130;49.012;8.368;2022-07-29T07:08:43;100074.66;;;21.60;87.76
52137;BME280;38130;49.012;8.368;2022-07-29T07:11:09;100084.41;;;21.60;88.94
52137;BME280;38130;49.012;8.368;2022-07-29T07:13:36;100088.03;;;21.68;87.24
52137;BME280;38130;49.012;8.368;2022-07-29T07:16:03;100077.38;;;21.88;86.51
52137;BME280;38130;49.012;8.368;2022-07-29T07:18:30;100084.84;;;22.11;84.73
52137;BME280;38130;49.012;8.368;2022-07-29T07:20:57;100086.69;;;22.29;83.90
52137;BME280;38130;49.012;8.368;2022-07-29T07:23:24;100093.16;;;22.44;81.73
52137;BME280;38130;49.012;8.368;2022-07-29T07:25:51;100091.34;;;22.45;81.76
52137;BME280;38130;49.012;8.368;2022-07-29T07:28:17;100092.09;;;22.55;81.70
52137;BME280;38130;49.012;8.368;2022-07-29T07:30:50;100098.91;;;22.85;80.46
52137;BME280;38130;49.012;8.368;2022-07-29T07:33:17;100101.69;;;23.19;76.89
52137;BME280;38130;49.012;8.368;2022-07-29T07:35:43;100106.59;;;23.06;77.27
52137;BME280;38130;49.012;8.368;2022-07-29T07:38:10;100108.69;;;23.64;74.08
52137;BME280;38130;49.012;8.368;2022-07-29T07:40:37;100104.22;;;23.64;73.31
52137;BME280;38130;49.012;8.368;2022-07-29T07:43:03;100105.88;;;23.65;73.32
52137;BME280;38130;49.012;8.368;2022-07-29T07:45:30;100107.13;;;23.35;75.00
52137;BME280;38130;49.012;8.368;2022-07-29T07:47:58;100104.19;;;23.38;74.49
52137;BME280;38130;49.012;8.368;2022-07-29T07:50:25;100105.72;;;23.67;71.86
52137;BME280;38130;49.012;8.368;2022-07-29T07:52:53;100100.47;;;24.43;68.72
52137;BME280;38130;49.012;8.368;2022-07-29T07:55:21;100098.53;;;24.53;67.05
52137;BME280;38130;49.012;8.368;2022-07-29T07:57:47;100095.53;;;24.48;67.02
52137;BME280;38130;49.012;8.368;2022-07-29T08:00:15;100103.22;;;24.25;66.64
52137;BME280;38130;49.012;8.368;2022-07-29T08:02:42;100103.72;;;23.95;68.98
52137;BME280;38130;49.012;8.368;2022-07-29T08:05:10;100110.06;;;24.78;64.80
52137;BME280;38130;49.012;8.368;2022-07-29T08:07:38;100112.63;;;25.12;61.19
52137;BME280;38130;49.012;8.368;2022-07-29T08:10:05;100110.56;;;24.82;62.72
52137;BME280;38130;49.012;8.368;2022-07-29T08:12:31;100111.34;;;24.66;63.04
52137;BME280;38130;49.012;8.368;2022-07-29T08:14:58;100118.50;;;24.23;62.92
52137;BME280;38130;49.012;8.368;2022-07-29T08:17:24;100117.16;;;24.19;62.25
52137;BME280;38130;49.012;8.368;2022-07-29T08:19:52;100106.31;;;24.12;60.96
52137;BME280;38130;49.012;8.368;2022-07-29T08:22:18;100107.53;;;24.26;60.43
52137;BME280;38130;49.012;8.368;2022-07-29T08:24:45;100110.94;;;24.02;61.52
52137;BME280;38130;49.012;8.368;2022-07-29T08:27:22;100106.69;;;24.26;59.62
52137;BME280;38130;49.012;8.368;2022-07-29T08:30:08;100117.34;;;24.26;59.31
52137;BME280;38130;49.012;8.368;2022-07-29T08:32:36;100120.28;;;24.57;58.21
52137;BME280;38130;49.012;8.368;2022-07-29T08:35:21;100128.34;;;24.89;56.53
52137;BME280;38130;49.012;8.368;2022-07-29T08:37:48;100119.41;;;25.39;55.56
52137;BME280;38130;49.012;8.368;2022-07-29T08:40:15;100111.53;;;26.42;52.22
52137;BME280;38130;49.012;8.368;2022-07-29T08:42:41;100114.97;;;26.81;49.77
52137;BME280;38130;49.012;8.368;2022-07-29T08:45:08;100118.91;;;26.94;48.44
52137;BME280;38130;49.012;8.368;2022-07-29T08:47:35;100120.66;;;27.32;48.22
52137;BME280;38130;49.012;8.368;2022-07-29T08:50:07;100120.47;;;28.01;47.33
52137;BME280;38130;49.012;8.368;2022-07-29T08:52:37;100116.97;;;28.15;45.46
52137;BME280;38130;49.012;8.368;2022-07-29T08:55:05;100128.78;;;27.54;46.41
52137;BME280;38130;49.012;8.368;2022-07-29T08:57:33;100129.38;;;27.03;48.20
52137;BME280;38130;49.012;8.368;2022-07-29T09:00:05;100126.06;;;26.39;50.13
52137;BME280;38130;49.012;8.368;2022-07-29T09:02:41;100125.41;;;26.29;50.92
52137;BME280;38130;49.012;8.368;2022-07-29T09:05:13;100132.72;;;26.35;50.61
52137;BME280;38130;49.012;8.368;2022-07-29T09:07:40;100115.81;;;26.12;50.67
52137;BME280;38130;49.012;8.368;2022-07-29T09:10:09;100118.06;;;26.39;49.86
52137;BME280;38130;49.012;8.368;2022-07-29T09:12:36;100118.13;;;26.85;48.54
52137;BME280;38130;49.012;8.368;2022-07-29T09:15:03;100117.91;;;27.55;46.68
52137;BME280;38130;49.012;8.368;2022-07-29T09:17:44;100121.69;;;27.61;46.02
52137;BME280;38130;49.012;8.368;2022-07-29T09:20:14;100125.81;;;28.16;44.36
52137;BME280;38130;49.012;8.368;2022-07-29T09:22:41;100113.09;;;28.03;45.43
52137;BME280;38130;49.012;8.368;2022-07-29T09:25:08;100119.91;;;28.71;43.48
52137;BME280;38130;49.012;8.368;2022-07-29T09:27:35;100119.94;;;29.07;41.79
52137;BME280;38130;49.012;8.368;2022-07-29T09:30:07;100119.81;;;29.43;41.31
52137;BME280;38130;49.012;8.368;2022-07-29T09:32:59;100116.91;;;29.17;40.86
52137;BME280;38130;49.012;8.368;2022-07-29T09:35:30;100117.63;;;29.26;40.93
52137;BME280;38130;49.012;8.368;2022-07-29T09:37:57;100114.00;;;28.90;41.86
52137;BME280;38130;49.012;8.368;2022-07-29T09:40:25;100102.25;;;28.55;43.62
52137;BME280;38130;49.012;8.368;2022-07-29T09:42:52;100107.81;;;28.90;42.64
52137;BME280;38130;49.012;8.368;2022-07-29T09:45:31;100103.06;;;29.13;42.18
52137;BME280;38130;49.012;8.368;2022-07-29T09:47:59;100108.44;;;28.92;41.33
52137;BME280;38130;49.012;8.368;2022-07-29T09:50:36;100112.72;;;28.21;43.56
52137;BME280;38130;49.012;8.368;2022-07-29T09:53:03;100110.41;;;27.73;45.40
52137;BME280;38130;49.012;8.368;2022-07-29T09:55:30;100113.66;;;27.84;44.71
52137;BME280;38130;49.012;8.368;2022-07-29T09:58:26;100117.16;;;28.14;44.19
52137;BME280;38130;49.012;8.368;2022-07-29T10:00:53;100114.28;;;28.15;43.04
52137;BME280;38130;49.012;8.368;2022-07-29T10:03:22;100117.16;;;28.14;43.21
52137;BME280;38130;49.012;8.368;2022-07-29T10:06:08;100107.69;;;28.83;42.01
52137;BME280;38130;49.012;8.368;2022-07-29T10:08:35;100115.84;;;29.11;41.23
52137;BME280;38130;49.012;8.368;2022-07-29T10:11:13;100111.84;;;28.64;42.89
52137;BME280;38130;49.012;8.368;2022-07-29T10:13:41;100110.03;;;28.86;42.33
52137;BME280;38130;49.012;8.368;2022-07-29T10:16:08;100107.81;;;28.90;42.42
52137;BME280;38130;49.012;8.368;2022-07-29T10:18:37;100102.47;;;28.90;42.50
52137;BME280;38130;49.012;8.368;2022-07-29T10:21:05;100103.94;;;28.92;41.12
52137;BME280;38130;49.012;8.368;2022-07-29T10:23:31;100104.88;;;29.06;39.10
52137;BME280;38130;49.012;8.368;2022-07-29T10:26:12;100099.53;;;29.34;38.39
52137;BME280;38130;49.012;8.368;2022-07-29T10:28:40;100105.00;;;29.69;37.69
52137;BME280;38130;49.012;8.368;2022-07-29T10:31:15;100091.25;;;29.50;37.08
52137;BME280;38130;49.012;8.368;2022-07-29T10:33:55;100087.88;;;29.70;36.89
52137;BME280;38130;49.012;8.368;2022-07-29T10:36:41;100094.78;;;29.51;38.13
52137;BME280;38130;49.012;8.368;2022-07-29T10:39:24;100075.91;;;29.44;38.82
52137;BME280;38130;49.012;8.368;2022-07-29T10:42:21;100079.75;;;29.91;38.02
52137;BME280;38130;49.012;8.368;2022-07-29T10:45:00;100074.72;;;29.81;37.37
52137;BME280;38130;49.012;8.368;2022-07-29T10:47:30;100076.00;;;29.30;38.54
52137;BME280;38130;49.012;8.368;2022-07-29T10:50:03;100075.00;;;29.93;37.57
52137;BME280;38130;49.012;8.368;2022-07-29T10:55:46;100079.16;;;29.96;37.17
52137;BME280;38130;49.012;8.368;2022-07-29T10:58:16;100075.13;;;30.13;36.35
52137;BME280;38130;49.012;8.368;2022-07-29T11:00:46;100074.50;;;29.76;37.88
52137;BME280;38130;49.012;8.368;2022-07-29T11:03:46;100079.22;;;29.68;38.14
52137;BME280;38130;49.012;8.368;2022-07-29T11:06:18;100074.78;;;29.32;38.32
52137;BME280;38130;49.012;8.368;2022-07-29T11:09:15;100079.25;;;29.46;38.39
52137;BME280;38130;49.012;8.368;2022-07-29T11:11:45;100075.88;;;29.38;38.14
52137;BME280;38130;49.012;8.368;2022-07-29T11:14:18;100066.88;;;29.80;37.57
52137;BME280;38130;49.012;8.368;2022-07-29T11:16:59;100068.94;;;30.13;37.04
52137;BME280;38130;49.012;8.368;2022-07-29T11:19:26;100056.84;;;30.30;36.23
52137;BME280;38130;49.012;8.368;2022-07-29T11:22:32;100067.28;;;30.73;35.68
52137;BME280;38130;49.012;8.368;2022-07-29T11:25:17;100060.59;;;30.42;35.78
52137;BME280;38130;49.012;8.368;2022-07-29T11:28:19;100071.25;;;30.16;36.14
52137;BME280;38130;49.012;8.368;2022-07-29T11:30:49;100072.13;;;29.60;37.45
52137;BME280;38130;49.012;8.368;2022-07-29T11:33:29;100067.59;;;29.54;37.36
52137;BME280;38130;49.012;8.368;2022-07-29T11:36:16;100069.94;;;29.42;37.69
52137;BME280;38130;49.012;8.368;2022-07-29T11:38:42;100074.31;;;29.01;37.78
52137;BME280;38130;49.012;8.368;2022-07-29T11:41:22;100068.38;;;28.62;39.04
52137;BME280;38130;49.012;8.368;2022-07-29T11:43:52;100070.63;;;28.59;39.26
52137;BME280;38130;49.012;8.368;2022-07-29T11:46:45;100070.75;;;28.21;39.71
52137;BME280;38130;49.012;8.368;2022-07-29T11:51:58;100066.47;;;28.78;39.35
52137;BME280;38130;49.012;8.368;2022-07-29T11:54:33;100060.56;;;29.32;37.99
52137;BME280;38130;49.012;8.368;2022-07-29T11:57:20;100066.50;;;29.48;37.50
52137;BME280;38130;49.012;8.368;2022-07-29T11:59:47;100068.38;;;29.27;38.08
52137;BME280;38130;49.012;8.368;2022-07-29T12:02:14;100066.28;;;29.01;37.49
52137;BME280;38130;49.012;8.368;2022-07-29T12:05:02;100070.63;;;28.59;37.62
52137;BME280;38130;49.012;8.368;2022-07-29T12:07:37;100074.63;;;28.33;38.72
52137;BME280;38130;49.012;8.368;2022-07-29T12:10:07;100063.94;;;28.33;38.64
52137;BME280;38130;49.012;8.368;2022-07-29T12:12:51;100075.41;;;28.13;39.41
52137;BME280;38130;49.012;8.368;2022-07-29T12:15:19;100060.44;;;28.03;39.59
52137;BME280;38130;49.012;8.368;2022-07-29T12:18:11;100063.03;;;28.26;39.34
52137;BME280;38130;49.012;8.368;2022-07-29T12:20:38;100059.50;;;28.41;39.12
52137;BME280;38130;49.012;8.368;2022-07-29T12:23:07;100069.09;;;28.35;38.37
52137;BME280;38130;49.012;8.368;2022-07-29T12:25:35;100068.88;;;28.51;37.50
52137;BME280;38130;49.012;8.368;2022-07-29T12:28:05;100064.13;;;28.32;38.41
52137;BME280;38130;49.012;8.368;2022-07-29T12:30:45;100064.47;;;28.44;37.56
52137;BME280;38130;49.012;8.368;2022-07-29T12:33:27;100056.25;;;28.45;37.72
52137;BME280;38130;49.012;8.368;2022-07-29T12:35:59;100064.53;;;28.50;37.71
52137;BME280;38130;49.012;8.368;2022-07-29T12:38:42;100056.91;;;28.47;37.77
52137;BME280;38130;49.012;8.368;2022-07-29T12:41:10;100056.69;;;28.49;37.72
52137;BME280;38130;49.012;8.368;2022-07-29T12:43:36;100051.31;;;28.27;38.14
52137;BME280;38130;49.012;8.368;2022-07-29T12:46:13;100057.38;;;28.21;37.33
52137;BME280;38130;49.012;8.368;2022-07-29T12:48:42;100062.66;;;28.15;37.04
52137;BME280;38130;49.012;8.368;2022-07-29T12:51:10;100054.44;;;28.16;37.01
52137;BME280;38130;49.012;8.368;2022-07-29T12:53:38;100054.50;;;28.23;37.17
52137;BME280;38130;49.012;8.368;2022-07-29T12:56:06;100059.22;;;28.21;37.36
52137;BME280;38130;49.012;8.368;2022-07-29T12:59:11;100050.81;;;28.39;37.23
52137;BME280;38130;49.012;8.368;2022-07-29T13:01:39;100057.34;;;28.51;37.30
52137;BME280;38130;49.012;8.368;2022-07-29T13:04:05;100059.81;;;28.31;37.64
52137;BME280;38130;49.012;8.368;2022-07-29T13:06:43;100070.69;;;28.00;38.16
52137;BME280;38130;49.012;8.368;2022-07-29T13:09:17;100069.78;;;27.78;38.78
52137;BME280;38130;49.012;8.368;2022-07-29T13:14:31;100067.00;;;27.86;38.60
52137;BME280;38130;49.012;8.368;2022-07-29T13:17:41;100077.06;;;27.99;38.59
52137;BME280;38130;49.012;8.368;2022-07-29T13:20:10;100078.91;;;27.98;38.27
52137;BME280;38130;49.012;8.368;2022-07-29T13:22:39;100078.72;;;27.85;38.34
52137;BME280;38130;49.012;8.368;2022-07-29T13:25:08;100078.97;;;27.75;38.94
52137;BME280;38130;49.012;8.368;2022-07-29T13:27:37;100079.28;;;27.81;38.23
52137;BME280;38130;49.012;8.368;2022-07-29T13:30:06;100079.94;;;27.83;37.83
52137;BME280;38130;49.012;8.368;2022-07-29T13:32:33;100080.56;;;27.70;38.24